Time;durP1;ratioP1;P1;durP2;ratioP2;P2;SDS_P1;SDS_P2;PMS_P1;PMS_P2;Temp;Humidity;BMP_temperature;BMP_pressure;BME280_temperature;BME280_humidity;BME280_pressure;Samples;Min_cycle;Max_cycle;Signal;HPM_P1;HPM_P2
2022/11/24 00:02:22;;;;;;;;;;;19.10;90.70;;;;;;5094719;28;19908;-41
2022/11/24 00:04:47;;;;;;;;;;;19.10;90.70;;;;;;5095988;28;19915;-41
2022/11/24 00:07:12;;;;;;;;;;;19.10;90.70;;;;;;5095502;28;20370;-41
2022/11/24 00:09:38;;;;;;;;;;;19.10;90.70;;;;;;5095264;28;19942;-41
2022/11/24 00:12:03;;;;;;;;;;;19.10;90.80;;;;;;5095606;28;20019;-39
2022/11/24 00:14:29;;;;;;;;;;;19.10;90.70;;;;;;5095465;28;19915;-40
2022/11/24 00:16:54;;;;;;;;;;;19.10;90.80;;;;;;5077485;28;20410;-39
2022/11/24 00:19:20;;;;;;;;;;;19.10;90.80;;;;;;5095517;28;19934;-40
2022/11/24 00:21:45;;;;;;;;;;;19.10;90.80;;;;;;5077372;28;19961;-43
2022/11/24 00:24:11;;;;;;;;;;;19.10;90.80;;;;;;5095457;28;20270;-39
2022/11/24 00:26:36;;;;;;;;;;;19.10;90.90;;;;;;5095194;28;19970;-39
2022/11/24 00:29:03;;;;;;;;;;;19.10;90.90;;;;;;5095282;28;19908;-39
2022/11/24 00:31:29;;;;;;;;;;;19.10;90.90;;;;;;5095300;28;19908;-40
2022/11/24 00:33:56;;;;;;;;;;;19.10;91.00;;;;;;5095634;28;19995;-39
2022/11/24 00:36:22;;;;;;;;;;;19.10;91.00;;;;;;5094991;28;20259;-39
2022/11/24 00:38:51;;;;;;;;;;;19.10;91.00;;;;;;5094910;28;19935;-40
2022/11/24 00:41:17;;;;;;;;;;;19.10;91.00;;;;;;5094842;28;20355;-41
2022/11/24 00:43:42;;;;;;;;;;;19.10;91.00;;;;;;5077136;28;19908;-40
2022/11/24 00:46:08;;;;;;;;;;;19.10;91.00;;;;;;5094736;28;20006;-40
2022/11/24 00:48:33;;;;;;;;;;;19.10;90.90;;;;;;5095020;28;19969;-40
2022/11/24 00:51:00;;;;;;;;;;;19.10;90.90;;;;;;5095259;28;20211;-40
2022/11/24 00:53:26;;;;;;;;;;;19.10;90.90;;;;;;5094630;28;19908;-40
2022/11/24 00:55:52;;;;;;;;;;;19.10;90.90;;;;;;5094563;28;19987;-40
2022/11/24 00:58:17;;;;;;;;;;;19.10;90.90;;;;;;5094623;28;19909;-41
2022/11/24 01:00:43;;;;;;;;;;;19.10;90.90;;;;;;5094863;28;19908;-40
2022/11/24 01:03:08;;;;;;;;;;;19.10;90.90;;;;;;5094534;28;19912;-40
2022/11/24 01:05:37;;;;;;;;;;;19.10;90.90;;;;;;5094687;28;19916;-40
2022/11/24 01:08:03;;;;;;;;;;;19.10;90.90;;;;;;5094317;28;19908;-40
2022/11/24 01:10:29;;;;;;;;;;;19.10;90.90;;;;;;5094434;28;19907;-40
2022/11/24 01:12:54;;;;;;;;;;;19.10;90.80;;;;;;5094381;28;19909;-40
2022/11/24 01:15:20;;;;;;;;;;;19.10;90.80;;;;;;5094275;28;19913;-40
2022/11/24 01:17:45;;;;;;;;;;;19.00;90.80;;;;;;5094657;28;19908;-40
2022/11/24 01:20:11;;;;;;;;;;;19.00;90.90;;;;;;5094565;28;20386;-40
2022/11/24 01:22:38;;;;;;;;;;;19.00;90.80;;;;;;5093478;28;21309;-40
2022/11/24 01:25:07;;;;;;;;;;;19.00;90.90;;;;;;5094349;28;19954;-41
2022/11/24 01:27:33;;;;;;;;;;;19.00;90.90;;;;;;5094324;28;19912;-40
2022/11/24 01:29:58;;;;;;;;;;;19.00;90.90;;;;;;5094173;28;19912;-40
2022/11/24 01:32:24;;;;;;;;;;;19.00;90.90;;;;;;5094420;28;20353;-40
2022/11/24 01:34:49;;;;;;;;;;;19.00;91.00;;;;;;5094474;28;19931;-40
2022/11/24 01:37:14;;;;;;;;;;;19.00;91.00;;;;;;5094290;28;19961;-40
2022/11/24 01:39:40;;;;;;;;;;;19.00;91.00;;;;;;5094324;28;19912;-40
2022/11/24 01:42:05;;;;;;;;;;;19.00;91.00;;;;;;5094278;28;19908;-40
2022/11/24 01:44:31;;;;;;;;;;;19.00;90.90;;;;;;5094334;28;19915;-40
2022/11/24 01:46:59;;;;;;;;;;;19.00;91.00;;;;;;5075712;28;19981;-40
2022/11/24 01:49:40;;;;;;;;;;;19.00;91.00;;;;;;5093830;28;19912;-40
2022/11/24 01:52:11;;;;;;;;;;;19.00;91.00;;;;;;5094141;28;19908;-40
2022/11/24 01:54:49;;;;;;;;;;;19.00;91.00;;;;;;5075711;28;19908;-40
2022/11/24 01:57:25;;;;;;;;;;;19.00;91.00;;;;;;5076195;28;19988;-40
2022/11/24 01:59:54;;;;;;;;;;;19.00;91.00;;;;;;5093775;28;19908;-40
2022/11/24 02:02:20;;;;;;;;;;;19.00;91.00;;;;;;5093687;28;19912;-40
2022/11/24 02:04:46;;;;;;;;;;;19.00;90.90;;;;;;5094070;28;19931;-40
2022/11/24 02:07:12;;;;;;;;;;;19.00;91.00;;;;;;5093999;28;19965;-40
2022/11/24 02:09:58;;;;;;;;;;;19.00;91.00;;;;;;5094057;28;19927;-40
2022/11/24 02:12:24;;;;;;;;;;;19.00;91.00;;;;;;5093750;28;20425;-40
2022/11/24 02:14:49;;;;;;;;;;;19.00;91.00;;;;;;5093946;28;19947;-41
2022/11/24 02:17:15;;;;;;;;;;;19.00;91.00;;;;;;5093880;28;19908;-41
2022/11/24 02:19:54;;;;;;;;;;;19.00;91.00;;;;;;5093909;28;19908;-40
2022/11/24 02:22:39;;;;;;;;;;;19.00;91.00;;;;;;5093920;28;20322;-40
2022/11/24 02:25:25;;;;;;;;;;;18.90;91.10;;;;;;5092361;28;19920;-41
2022/11/24 02:27:51;;;;;;;;;;;19.00;91.10;;;;;;5093648;28;19970;-42
2022/11/24 02:30:17;;;;;;;;;;;18.90;91.10;;;;;;5096348;28;19916;-40
2022/11/24 02:32:42;;;;;;;;;;;19.00;91.10;;;;;;5096514;28;19931;-40
2022/11/24 02:35:09;;;;;;;;;;;18.90;91.10;;;;;;5096268;28;19908;-40
2022/11/24 02:37:34;;;;;;;;;;;18.90;91.10;;;;;;5095759;28;19957;-40
2022/11/24 02:40:00;;;;;;;;;;;18.90;91.10;;;;;;5095861;28;19912;-40
2022/11/24 02:42:27;;;;;;;;;;;18.90;91.00;;;;;;5100706;28;19931;-40
2022/11/24 02:44:54;;;;;;;;;;;18.90;91.00;;;;;;5091453;28;19912;-40
2022/11/24 02:47:19;;;;;;;;;;;18.90;91.00;;;;;;5099596;28;19931;-41
2022/11/24 02:49:45;;;;;;;;;;;18.90;91.00;;;;;;5108578;28;19913;-40
2022/11/24 02:52:10;;;;;;;;;;;18.90;91.10;;;;;;5098341;28;19915;-39
2022/11/24 02:54:36;;;;;;;;;;;18.90;91.10;;;;;;5108365;28;19912;-40
2022/11/24 02:57:01;;;;;;;;;;;18.90;91.10;;;;;;5095589;28;19957;-40
2022/11/24 02:59:27;;;;;;;;;;;18.90;91.10;;;;;;5077124;28;19905;-40
2022/11/24 03:01:52;;;;;;;;;;;18.90;91.10;;;;;;5094861;28;20308;-41
2022/11/24 03:04:18;;;;;;;;;;;18.90;91.10;;;;;;5095237;28;19904;-40
2022/11/24 03:06:43;;;;;;;;;;;18.90;91.20;;;;;;5094703;28;20396;-41
2022/11/24 03:09:10;;;;;;;;;;;18.90;91.20;;;;;;5095245;28;19916;-42
2022/11/24 03:11:35;;;;;;;;;;;18.90;91.10;;;;;;5095453;28;19904;-40
2022/11/24 03:14:01;;;;;;;;;;;18.90;91.10;;;;;;5096963;28;20002;-40
2022/11/24 03:16:26;;;;;;;;;;;18.90;91.10;;;;;;5096812;28;20354;-40
2022/11/24 03:18:52;;;;;;;;;;;18.90;91.10;;;;;;5097139;28;19904;-40
2022/11/24 03:21:18;;;;;;;;;;;18.90;91.20;;;;;;5096738;28;19904;-40
2022/11/24 03:23:43;;;;;;;;;;;18.90;91.20;;;;;;5096674;28;19904;-40
2022/11/24 03:26:13;;;;;;;;;;;18.90;91.10;;;;;;5096228;28;19918;-40
2022/11/24 03:28:39;;;;;;;;;;;18.90;91.20;;;;;;5096286;28;19904;-40
2022/11/24 03:31:05;;;;;;;;;;;19.00;91.20;;;;;;5096579;28;20339;-40
2022/11/24 03:33:31;;;;;;;;;;;19.00;91.20;;;;;;5096212;28;19914;-39
2022/11/24 03:35:57;;;;;;;;;;;18.90;91.10;;;;;;5096488;28;19908;-40
2022/11/24 03:38:22;;;;;;;;;;;19.00;91.20;;;;;;5077034;28;19911;-40
2022/11/24 03:40:47;;;;;;;;;;;19.00;91.10;;;;;;5096165;28;19957;-39
2022/11/24 03:43:13;;;;;;;;;;;19.00;91.20;;;;;;5096298;28;20002;-40
2022/11/24 03:45:39;;;;;;;;;;;19.00;91.10;;;;;;5096130;28;19904;-41
2022/11/24 03:48:05;;;;;;;;;;;19.00;91.10;;;;;;5096138;28;19912;-40
2022/11/24 03:50:30;;;;;;;;;;;19.00;91.10;;;;;;5095763;28;20312;-40
2022/11/24 03:52:56;;;;;;;;;;;18.90;91.10;;;;;;5077940;28;20394;-40
2022/11/24 03:55:21;;;;;;;;;;;18.90;91.10;;;;;;5096191;28;19995;-40
2022/11/24 03:57:47;;;;;;;;;;;19.00;91.10;;;;;;5096168;28;20370;-40
2022/11/24 04:00:12;;;;;;;;;;;18.90;91.10;;;;;;5096350;28;19908;-40
2022/11/24 04:02:38;;;;;;;;;;;18.90;91.10;;;;;;5096032;28;19908;-40
2022/11/24 04:05:04;;;;;;;;;;;18.90;91.10;;;;;;5095890;28;20323;-40
2022/11/24 04:07:29;;;;;;;;;;;18.90;91.00;;;;;;5095796;28;19919;-40
2022/11/24 04:09:55;;;;;;;;;;;18.90;91.00;;;;;;5092492;28;19916;-40
2022/11/24 04:15:05;;;;;;;;;;;18.90;91.00;;;;;;5095623;28;19954;-40
2022/11/24 04:17:30;;;;;;;;;;;18.90;91.00;;;;;;5095745;28;19908;-40
2022/11/24 04:19:55;;;;;;;;;;;18.90;91.00;;;;;;5077229;28;19911;-40
2022/11/24 04:22:21;;;;;;;;;;;18.80;91.00;;;;;;5095370;28;19943;-42
2022/11/24 04:24:46;;;;;;;;;;;18.90;91.00;;;;;;5095361;28;19904;-40
2022/11/24 04:27:12;;;;;;;;;;;18.80;91.00;;;;;;5095121;28;20366;-40
2022/11/24 04:29:37;;;;;;;;;;;18.90;91.00;;;;;;5095548;28;19904;-40
2022/11/24 04:32:03;;;;;;;;;;;18.80;91.00;;;;;;5095457;28;20012;-40
2022/11/24 04:34:28;;;;;;;;;;;18.90;91.10;;;;;;5095434;28;19904;-40
2022/11/24 04:36:54;;;;;;;;;;;18.90;91.10;;;;;;5095419;28;19904;-40
2022/11/24 04:39:19;;;;;;;;;;;18.90;91.10;;;;;;5095321;28;19908;-40
2022/11/24 04:41:45;;;;;;;;;;;18.80;91.10;;;;;;5095611;28;19904;-40
2022/11/24 04:44:11;;;;;;;;;;;18.80;91.20;;;;;;5094923;28;20338;-40
2022/11/24 04:46:36;;;;;;;;;;;18.90;91.20;;;;;;5095118;28;19912;-40
2022/11/24 04:49:02;;;;;;;;;;;18.80;91.20;;;;;;5094683;28;20270;-40
2022/11/24 04:51:27;;;;;;;;;;;18.90;91.20;;;;;;5094853;28;19904;-40
2022/11/24 04:53:53;;;;;;;;;;;18.80;91.20;;;;;;5094740;28;20266;-41
2022/11/24 04:56:18;;;;;;;;;;;18.90;91.20;;;;;;5095048;28;19911;-40
2022/11/24 04:58:46;;;;;;;;;;;18.90;91.20;;;;;;5094986;28;19904;-40
2022/11/24 05:01:12;;;;;;;;;;;18.80;91.20;;;;;;5094629;28;19904;-40
2022/11/24 05:03:37;;;;;;;;;;;18.90;91.30;;;;;;5094609;28;20347;-40
2022/11/24 05:06:03;;;;;;;;;;;18.80;91.10;;;;;;5094429;28;20065;-40
2022/11/24 05:08:28;;;;;;;;;;;18.80;91.10;;;;;;5094412;28;19904;-40
2022/11/24 05:10:54;;;;;;;;;;;18.80;91.10;;;;;;5094736;28;19916;-41
2022/11/24 05:13:19;;;;;;;;;;;18.80;91.10;;;;;;5094363;28;20045;-40
2022/11/24 05:15:45;;;;;;;;;;;18.80;91.10;;;;;;5094590;28;19908;-40
2022/11/24 05:18:11;;;;;;;;;;;18.80;91.10;;;;;;5094377;28;19999;-40
2022/11/24 05:20:36;;;;;;;;;;;18.80;91.10;;;;;;5094783;28;19904;-40
2022/11/24 05:23:03;;;;;;;;;;;18.80;91.10;;;;;;5094434;28;19910;-40
2022/11/24 05:25:28;;;;;;;;;;;18.80;91.20;;;;;;5094305;28;20232;-40
2022/11/24 05:27:54;;;;;;;;;;;18.80;91.10;;;;;;5094223;28;19935;-41
2022/11/24 05:30:19;;;;;;;;;;;18.80;91.10;;;;;;5076198;28;19915;-40
2022/11/24 05:32:45;;;;;;;;;;;18.80;91.10;;;;;;5094276;28;20350;-40
2022/11/24 05:35:10;;;;;;;;;;;18.80;91.10;;;;;;5094177;28;19908;-40
2022/11/24 05:37:36;;;;;;;;;;;18.80;91.10;;;;;;5093795;28;19904;-39
2022/11/24 05:40:02;;;;;;;;;;;18.80;91.10;;;;;;5094075;28;19987;-40
2022/11/24 05:42:39;;;;;;;;;;;18.80;91.10;;;;;;5093836;28;19935;-40
2022/11/24 05:45:06;;;;;;;;;;;18.80;91.10;;;;;;5093793;28;20037;-40
2022/11/24 05:47:31;;;;;;;;;;;18.70;91.10;;;;;;5093611;28;19912;-40
2022/11/24 05:49:57;;;;;;;;;;;18.70;91.10;;;;;;5093695;28;19910;-40
2022/11/24 05:52:22;;;;;;;;;;;18.80;91.10;;;;;;5076053;28;19908;-40
2022/11/24 05:54:47;;;;;;;;;;;18.70;91.10;;;;;;5093767;28;19905;-40
2022/11/24 05:57:15;;;;;;;;;;;18.70;91.10;;;;;;5093746;28;19957;-40
2022/11/24 05:59:40;;;;;;;;;;;18.70;91.10;;;;;;5094007;28;19994;-40
2022/11/24 06:02:05;;;;;;;;;;;18.70;91.10;;;;;;5097226;28;19951;-40
2022/11/24 06:04:31;;;;;;;;;;;18.70;91.10;;;;;;5098186;28;19998;-40
2022/11/24 06:06:56;;;;;;;;;;;18.70;91.20;;;;;;5097697;28;19919;-40
2022/11/24 06:09:22;;;;;;;;;;;18.70;91.20;;;;;;5098014;28;20446;-40
2022/11/24 06:11:48;;;;;;;;;;;18.70;91.20;;;;;;5098117;28;19916;-40
2022/11/24 06:14:13;;;;;;;;;;;18.70;91.20;;;;;;5097810;28;19904;-40
2022/11/24 06:16:39;;;;;;;;;;;18.70;91.20;;;;;;5097687;28;19911;-40
2022/11/24 06:19:04;;;;;;;;;;;18.70;91.20;;;;;;5079494;28;19911;-40
2022/11/24 06:21:30;;;;;;;;;;;18.70;91.20;;;;;;5097813;28;20020;-40
2022/11/24 06:23:56;;;;;;;;;;;18.70;91.20;;;;;;5097769;28;19961;-40
2022/11/24 06:26:21;;;;;;;;;;;18.70;91.20;;;;;;5090612;28;19925;-40
2022/11/24 06:28:47;;;;;;;;;;;18.70;91.20;;;;;;5089734;28;19951;-44
2022/11/24 06:31:12;;;;;;;;;;;18.60;91.20;;;;;;5061654;28;19952;-43
2022/11/24 06:33:38;;;;;;;;;;;18.70;91.30;;;;;;5096632;28;20361;-40
2022/11/24 06:36:05;;;;;;;;;;;18.60;91.30;;;;;;5095968;28;20274;-40
2022/11/24 06:38:31;;;;;;;;;;;18.60;91.20;;;;;;5095904;28;20372;-40
2022/11/24 06:41:05;;;;;;;;;;;18.70;91.30;;;;;;5096086;28;19925;-40
2022/11/24 06:43:31;;;;;;;;;;;18.60;91.30;;;;;;5095769;28;19912;-40
2022/11/24 06:45:56;;;;;;;;;;;18.70;91.30;;;;;;5095811;28;20002;-40
2022/11/24 06:48:22;;;;;;;;;;;18.70;91.30;;;;;;5096714;28;19948;-40
2022/11/24 06:50:48;;;;;;;;;;;18.70;91.30;;;;;;5097015;28;19940;-40
2022/11/24 06:53:14;;;;;;;;;;;18.70;91.20;;;;;;5093012;28;20368;-40
2022/11/24 06:55:40;;;;;;;;;;;18.70;91.10;;;;;;5079118;28;19912;-40
2022/11/24 06:58:05;;;;;;;;;;;18.80;91.20;;;;;;5095458;28;20278;-40
2022/11/24 07:00:33;;;;;;;;;;;18.80;91.10;;;;;;5095818;28;20331;-45
2022/11/24 07:02:59;;;;;;;;;;;18.80;91.10;;;;;;5097560;28;19969;-40
2022/11/24 07:05:25;;;;;;;;;;;18.80;90.90;;;;;;5095777;28;19909;-40
2022/11/24 07:07:51;;;;;;;;;;;18.80;91.00;;;;;;5117021;28;20294;-39
2022/11/24 07:10:16;;;;;;;;;;;18.80;91.10;;;;;;5079457;28;19920;-40
2022/11/24 07:12:42;;;;;;;;;;;18.80;91.00;;;;;;5075257;28;19913;-39
2022/11/24 07:15:08;;;;;;;;;;;18.80;91.00;;;;;;5095149;28;19915;-39
2022/11/24 07:17:36;;;;;;;;;;;18.80;90.40;;;;;;5088513;28;20001;-40
2022/11/24 07:20:03;;;;;;;;;;;18.80;90.70;;;;;;5092848;28;20267;-39
2022/11/24 07:22:28;;;;;;;;;;;18.80;91.20;;;;;;5080815;28;19958;-40
2022/11/24 07:24:54;;;;;;;;;;;18.80;91.20;;;;;;5075421;28;19909;-40
2022/11/24 07:27:19;;;;;;;;;;;18.80;91.10;;;;;;5066709;28;19963;-44
2022/11/24 07:29:45;;;;;;;;;;;18.80;91.00;;;;;;5072872;28;20317;-41
2022/11/24 07:32:10;;;;;;;;;;;18.80;91.10;;;;;;5074664;28;19920;-41
2022/11/24 07:34:36;;;;;;;;;;;18.80;91.10;;;;;;5075222;28;19962;-40
2022/11/24 07:37:01;;;;;;;;;;;18.80;91.10;;;;;;5075724;28;20344;-40
2022/11/24 07:39:26;;;;;;;;;;;18.80;91.10;;;;;;5075699;28;19916;-40
2022/11/24 07:41:52;;;;;;;;;;;18.80;91.10;;;;;;5075332;28;19909;-40
2022/11/24 07:44:17;;;;;;;;;;;18.80;91.10;;;;;;5075694;28;19908;-40
2022/11/24 07:46:43;;;;;;;;;;;18.70;91.10;;;;;;5075679;28;20351;-40
2022/11/24 07:49:08;;;;;;;;;;;18.70;91.20;;;;;;5075696;28;20316;-40
2022/11/24 07:51:35;;;;;;;;;;;18.70;91.20;;;;;;5075505;28;19908;-40
2022/11/24 07:54:01;;;;;;;;;;;18.70;91.20;;;;;;5075151;28;19919;-40
2022/11/24 07:56:26;;;;;;;;;;;18.70;91.20;;;;;;5075597;28;20270;-40
2022/11/24 07:58:52;;;;;;;;;;;18.70;91.20;;;;;;5075622;28;19908;-40
2022/11/24 08:01:17;;;;;;;;;;;18.70;91.20;;;;;;5075351;28;19908;-40
2022/11/24 08:03:43;;;;;;;;;;;18.60;91.10;;;;;;5075089;28;19908;-40
2022/11/24 08:06:09;;;;;;;;;;;18.60;91.20;;;;;;5074888;28;20224;-40
2022/11/24 08:08:35;;;;;;;;;;;18.60;91.10;;;;;;5075336;28;19935;-40
2022/11/24 08:11:07;;;;;;;;;;;18.60;91.10;;;;;;5086979;28;19924;-40
2022/11/24 08:13:34;;;;;;;;;;;18.60;91.10;;;;;;5095450;28;19999;-40
2022/11/24 08:16:02;;;;;;;;;;;18.60;91.20;;;;;;5095431;28;19931;-40
2022/11/24 08:18:28;;;;;;;;;;;18.60;91.20;;;;;;5095116;28;19908;-40
2022/11/24 08:20:56;;;;;;;;;;;18.70;91.20;;;;;;5095388;28;19931;-40
2022/11/24 08:23:21;;;;;;;;;;;18.60;91.20;;;;;;5094127;28;20354;-40
2022/11/24 08:25:46;;;;;;;;;;;18.60;91.20;;;;;;5094861;28;19908;-40
2022/11/24 08:28:12;;;;;;;;;;;18.60;91.20;;;;;;5095028;28;20394;-40
2022/11/24 08:30:37;;;;;;;;;;;18.70;91.20;;;;;;5095085;28;19998;-40
2022/11/24 08:33:03;;;;;;;;;;;18.70;91.20;;;;;;5094954;28;20017;-40
2022/11/24 08:35:28;;;;;;;;;;;18.60;91.40;;;;;;5094614;28;19908;-41
2022/11/24 08:37:54;;;;;;;;;;;18.60;91.10;;;;;;5094655;28;19908;-40
2022/11/24 08:40:20;;;;;;;;;;;18.70;91.20;;;;;;5094584;28;19947;-40
2022/11/24 08:42:46;;;;;;;;;;;18.60;91.10;;;;;;5094978;28;19908;-40
2022/11/24 08:45:11;;;;;;;;;;;18.60;91.10;;;;;;5094676;28;19914;-41
2022/11/24 08:47:37;;;;;;;;;;;18.60;91.10;;;;;;5094480;28;19923;-41
2022/11/24 08:50:04;;;;;;;;;;;18.60;91.10;;;;;;5094559;28;19930;-40
2022/11/24 08:52:30;;;;;;;;;;;18.60;91.30;;;;;;5094507;28;19908;-41
2022/11/24 08:54:55;;;;;;;;;;;18.60;91.10;;;;;;5076279;28;19915;-41
2022/11/24 08:57:21;;;;;;;;;;;18.60;91.00;;;;;;5094088;28;19908;-41
2022/11/24 08:59:46;;;;;;;;;;;18.60;91.30;;;;;;5094354;28;19908;-41
2022/11/24 09:02:12;;;;;;;;;;;18.60;91.10;;;;;;5094214;28;20358;-40
2022/11/24 09:04:38;;;;;;;;;;;18.60;91.10;;;;;;5094870;28;19943;-41
2022/11/24 09:07:04;;;;;;;;;;;18.60;91.10;;;;;;5094180;28;20006;-41
2022/11/24 09:09:29;;;;;;;;;;;18.60;91.10;;;;;;5094502;28;20378;-41
2022/11/24 09:11:55;;;;;;;;;;;18.60;91.10;;;;;;5093115;28;19927;-41
2022/11/24 09:14:20;;;;;;;;;;;18.60;91.10;;;;;;5093113;28;19965;-41
2022/11/24 09:16:46;;;;;;;;;;;18.60;91.10;;;;;;5093106;28;19908;-42
2022/11/24 09:19:11;;;;;;;;;;;18.60;91.10;;;;;;5093024;28;19915;-41
2022/11/24 09:21:37;;;;;;;;;;;18.60;91.00;;;;;;5093167;28;19908;-41
2022/11/24 09:24:04;;;;;;;;;;;18.60;91.00;;;;;;5093296;28;19951;-41
2022/11/24 09:26:31;;;;;;;;;;;18.60;91.00;;;;;;5093538;28;19923;-41
2022/11/24 09:28:57;;;;;;;;;;;18.50;91.00;;;;;;5093793;28;20271;-41
2022/11/24 09:31:24;;;;;;;;;;;18.60;91.00;;;;;;5093673;28;19907;-41
2022/11/24 09:33:49;;;;;;;;;;;18.60;91.00;;;;;;5093340;28;19909;-41
2022/11/24 09:36:15;;;;;;;;;;;18.60;91.00;;;;;;5093323;28;19915;-41
2022/11/24 09:38:40;;;;;;;;;;;18.60;91.00;;;;;;5093575;28;20331;-41
2022/11/24 09:41:24;;;;;;;;;;;18.60;91.00;;;;;;5092922;28;19908;-41
2022/11/24 09:43:50;;;;;;;;;;;18.60;91.00;;;;;;5093188;28;19908;-41
2022/11/24 09:46:34;;;;;;;;;;;18.60;91.00;;;;;;5092470;28;19920;-41
2022/11/24 09:49:00;;;;;;;;;;;18.60;91.00;;;;;;5092671;28;19915;-41
2022/11/24 09:51:27;;;;;;;;;;;18.60;91.00;;;;;;5093018;28;19912;-41
2022/11/24 09:53:53;;;;;;;;;;;18.60;91.10;;;;;;5092794;28;19948;-42
2022/11/24 09:56:22;;;;;;;;;;;18.60;91.00;;;;;;5092839;28;19943;-41
2022/11/24 09:59:06;;;;;;;;;;;18.60;91.00;;;;;;5092931;28;19920;-41
2022/11/24 10:01:34;;;;;;;;;;;18.60;91.00;;;;;;5092944;28;19912;-41
2022/11/24 10:04:00;;;;;;;;;;;18.60;91.00;;;;;;5092705;28;19908;-42
2022/11/24 10:06:26;;;;;;;;;;;18.60;91.00;;;;;;5092908;28;20353;-41
2022/11/24 10:08:52;;;;;;;;;;;18.60;91.00;;;;;;5092508;28;19912;-40
2022/11/24 10:11:29;;;;;;;;;;;18.60;91.00;;;;;;5029278;28;1802094;-41
2022/11/24 10:14:00;;;;;;;;;;;18.60;91.00;;;;;;5093652;28;19918;-41
2022/11/24 10:16:40;;;;;;;;;;;18.60;91.00;;;;;;5093524;28;19912;-40
2022/11/24 10:19:13;;;;;;;;;;;18.60;91.00;;;;;;5093263;28;19908;-41
2022/11/24 10:22:00;;;;;;;;;;;18.50;90.90;;;;;;5075516;28;19954;-40
2022/11/24 10:24:26;;;;;;;;;;;18.50;91.00;;;;;;5093269;28;20374;-40
2022/11/24 10:26:59;;;;;;;;;;;18.50;91.00;;;;;;5093035;28;19919;-40
2022/11/24 10:29:36;;;;;;;;;;;18.50;91.00;;;;;;5093598;28;19912;-40
2022/11/24 10:32:04;;;;;;;;;;;18.50;91.00;;;;;;5093236;28;20077;-41
2022/11/24 10:34:32;;;;;;;;;;;18.50;91.00;;;;;;5093457;28;20332;-42
2022/11/24 10:37:01;;;;;;;;;;;18.50;90.90;;;;;;5093444;28;19908;-40
2022/11/24 10:39:27;;;;;;;;;;;18.50;90.90;;;;;;5093037;28;19908;-40
2022/11/24 10:41:59;;;;;;;;;;;18.50;91.00;;;;;;5093102;28;19915;-40
2022/11/24 10:44:24;;;;;;;;;;;18.50;91.00;;;;;;5092911;28;19914;-41
2022/11/24 10:46:51;;;;;;;;;;;18.40;90.90;;;;;;5094495;28;19916;-40
2022/11/24 10:49:24;;;;;;;;;;;18.50;91.00;;;;;;5079136;28;20296;-40
2022/11/24 10:51:55;;;;;;;;;;;18.50;90.90;;;;;;5096834;28;20049;-41
2022/11/24 10:54:21;;;;;;;;;;;18.40;90.90;;;;;;5097008;28;19912;-40
2022/11/24 10:56:49;;;;;;;;;;;18.50;90.90;;;;;;5096932;28;20366;-41
2022/11/24 10:59:24;;;;;;;;;;;18.40;91.20;;;;;;5097043;28;19932;-40
2022/11/24 11:01:50;;;;;;;;;;;18.40;90.90;;;;;;5097030;28;20347;-40
2022/11/24 11:04:20;;;;;;;;;;;18.40;90.90;;;;;;5097219;28;19908;-40
2022/11/24 11:06:45;;;;;;;;;;;18.40;90.90;;;;;;5096784;28;19912;-40
2022/11/24 11:09:18;;;;;;;;;;;18.50;90.90;;;;;;5096468;28;19980;-40
2022/11/24 11:11:47;;;;;;;;;;;18.50;90.90;;;;;;5096676;28;19924;-40
2022/11/24 11:14:27;;;;;;;;;;;18.50;90.90;;;;;;5078457;28;19912;-39
2022/11/24 11:16:52;;;;;;;;;;;18.50;90.90;;;;;;5078298;28;19952;-40
2022/11/24 11:19:31;;;;;;;;;;;18.50;90.90;;;;;;5096146;28;19908;-39
2022/11/24 11:21:58;;;;;;;;;;;18.50;90.90;;;;;;5096232;28;19908;-39
2022/11/24 11:24:25;;;;;;;;;;;18.50;90.90;;;;;;5096261;28;19912;-39
2022/11/24 11:26:58;;;;;;;;;;;18.50;90.90;;;;;;5096217;28;20366;-40
2022/11/24 11:29:25;;;;;;;;;;;18.50;90.90;;;;;;5096145;28;19920;-40
2022/11/24 11:31:58;;;;;;;;;;;18.50;90.90;;;;;;5096037;28;19954;-39
2022/11/24 11:34:24;;;;;;;;;;;18.50;90.90;;;;;;5096118;28;19912;-39
2022/11/24 11:36:51;;;;;;;;;;;18.50;90.90;;;;;;5096296;28;19908;-40
2022/11/24 11:39:25;;;;;;;;;;;18.50;90.90;;;;;;5096215;28;20001;-40
2022/11/24 11:41:52;;;;;;;;;;;18.50;90.90;;;;;;5096397;28;19916;-40
2022/11/24 11:44:18;;;;;;;;;;;18.50;90.90;;;;;;5095943;28;19908;-41
2022/11/24 11:46:43;;;;;;;;;;;18.50;90.90;;;;;;5096066;28;19919;-40
2022/11/24 11:49:11;;;;;;;;;;;18.50;90.90;;;;;;5095981;28;19999;-41
2022/11/24 11:51:43;;;;;;;;;;;18.40;90.90;;;;;;5095353;28;19908;-41
2022/11/24 11:54:08;;;;;;;;;;;18.50;90.90;;;;;;5077808;28;19908;-40
2022/11/24 11:56:36;;;;;;;;;;;18.40;90.90;;;;;;5095499;28;20264;-40
2022/11/24 11:59:21;;;;;;;;;;;18.40;90.90;;;;;;5094557;28;20306;-41
2022/11/24 12:02:01;;;;;;;;;;;18.40;90.90;;;;;;5077557;28;19919;-41
2022/11/24 12:04:33;;;;;;;;;;;18.40;90.90;;;;;;5095815;28;19953;-40
2022/11/24 12:07:04;;;;;;;;;;;18.40;90.90;;;;;;5077322;28;19912;-40
2022/11/24 12:09:45;;;;;;;;;;;18.40;90.90;;;;;;5095427;28;19935;-40
2022/11/24 12:12:10;;;;;;;;;;;18.40;90.90;;;;;;5095416;28;19924;-41
2022/11/24 12:14:51;;;;;;;;;;;18.40;90.90;;;;;;5095637;28;19936;-40
2022/11/24 12:17:35;;;;;;;;;;;18.40;90.90;;;;;;5077356;28;19912;-40
2022/11/24 12:20:01;;;;;;;;;;;18.40;90.90;;;;;;5095268;28;19976;-44
2022/11/24 12:22:29;;;;;;;;;;;18.40;90.90;;;;;;5077217;28;19912;-40
2022/11/24 12:24:59;;;;;;;;;;;18.40;90.90;;;;;;5095333;28;19909;-41
2022/11/24 12:27:40;;;;;;;;;;;18.40;90.90;;;;;;5095233;28;19912;-40
2022/11/24 12:30:05;;;;;;;;;;;18.40;90.90;;;;;;5095352;28;19912;-40
2022/11/24 12:32:40;;;;;;;;;;;18.40;90.90;;;;;;5094652;28;20022;-43
2022/11/24 12:35:05;;;;;;;;;;;18.30;90.90;;;;;;5095462;28;19908;-40
2022/11/24 12:37:37;;;;;;;;;;;18.30;90.90;;;;;;5094772;28;20421;-45
2022/11/24 12:40:04;;;;;;;;;;;18.40;90.90;;;;;;5094859;28;19962;-40
2022/11/24 12:42:44;;;;;;;;;;;18.40;90.90;;;;;;5095028;28;20015;-40
2022/11/24 12:45:12;;;;;;;;;;;18.30;90.90;;;;;;5095033;28;19912;-39
2022/11/24 12:47:43;;;;;;;;;;;18.40;90.90;;;;;;5094553;28;19912;-40
2022/11/24 12:50:12;;;;;;;;;;;18.40;90.90;;;;;;5094660;28;20002;-40
2022/11/24 12:52:40;;;;;;;;;;;18.30;90.90;;;;;;5094634;28;19908;-40
2022/11/24 12:55:11;;;;;;;;;;;18.40;90.90;;;;;;5094568;28;19987;-40
2022/11/24 12:57:43;;;;;;;;;;;18.30;90.90;;;;;;5076224;28;20313;-40
2022/11/24 13:00:17;;;;;;;;;;;18.30;90.90;;;;;;5076658;28;20346;-40
2022/11/24 13:02:58;;;;;;;;;;;18.30;90.90;;;;;;5094320;28;19961;-40
2022/11/24 13:05:24;;;;;;;;;;;18.30;90.90;;;;;;5094169;28;19908;-41
2022/11/24 13:07:56;;;;;;;;;;;18.30;90.90;;;;;;5094492;28;19913;-40
2022/11/24 13:10:22;;;;;;;;;;;18.30;90.90;;;;;;5093065;28;20371;-41
2022/11/24 13:13:04;;;;;;;;;;;18.30;90.90;;;;;;5093961;28;19915;-41
2022/11/24 13:15:30;;;;;;;;;;;18.30;90.90;;;;;;5093817;28;19908;-40
2022/11/24 13:17:56;;;;;;;;;;;18.30;91.00;;;;;;5093980;28;19916;-41
2022/11/24 13:20:34;;;;;;;;;;;18.30;90.90;;;;;;5094067;28;19909;-41
2022/11/24 13:23:03;;;;;;;;;;;18.20;90.90;;;;;;5094044;28;19916;-41
2022/11/24 13:25:32;;;;;;;;;;;18.20;90.90;;;;;;5075873;28;19908;-41
2022/11/24 13:27:59;;;;;;;;;;;18.30;90.90;;;;;;5094038;28;19923;-40
2022/11/24 13:30:52;;;;;;;;;;;18.20;90.90;;;;;;5094047;28;20347;-41
2022/11/24 13:33:28;;;;;;;;;;;18.20;90.90;;;;;;5094496;28;19909;-40
2022/11/24 13:36:02;;;;;;;;;;;18.20;90.90;;;;;;5093642;28;19908;-41
2022/11/24 13:38:50;;;;;;;;;;;18.20;90.90;;;;;;5094304;28;19908;-41
2022/11/24 13:41:30;;;;;;;;;;;18.20;90.90;;;;;;5093812;28;19912;-41
2022/11/24 13:44:14;;;;;;;;;;;18.20;90.90;;;;;;5093652;28;20299;-41
2022/11/24 13:46:57;;;;;;;;;;;18.20;90.90;;;;;;5093840;28;20274;-41
2022/11/24 13:49:23;;;;;;;;;;;18.20;90.90;;;;;;5093648;28;19912;-40
2022/11/24 13:51:52;;;;;;;;;;;18.20;91.00;;;;;;5093309;28;19933;-40
2022/11/24 13:54:17;;;;;;;;;;;18.20;91.00;;;;;;5093274;28;19908;-40
2022/11/24 13:56:43;;;;;;;;;;;18.20;91.00;;;;;;5093496;28;19908;-40
2022/11/24 13:59:35;;;;;;;;;;;18.20;91.00;;;;;;5093598;28;19909;-40
2022/11/24 14:02:02;;;;;;;;;;;18.20;90.90;;;;;;5089529;28;19916;-40
2022/11/24 14:04:28;;;;;;;;;;;18.20;91.00;;;;;;5093402;28;19912;-40
2022/11/24 14:06:57;;;;;;;;;;;18.20;90.90;;;;;;5093610;28;19923;-40
2022/11/24 14:09:25;;;;;;;;;;;18.20;91.00;;;;;;5093622;28;19981;-40
2022/11/24 14:12:09;;;;;;;;;;;18.20;91.00;;;;;;5093444;28;19928;-40
2022/11/24 14:14:35;;;;;;;;;;;18.20;91.00;;;;;;5093353;28;19958;-40
2022/11/24 14:17:12;;;;;;;;;;;18.20;91.00;;;;;;5092986;28;19955;-40
2022/11/24 14:19:37;;;;;;;;;;;18.20;91.00;;;;;;5092955;28;19908;-40
2022/11/24 14:22:03;;;;;;;;;;;18.20;91.00;;;;;;5094874;28;19915;-40
2022/11/24 14:24:32;;;;;;;;;;;18.20;91.00;;;;;;5097187;28;19915;-41